sensor_id;sensor_type;location;lat;lon;timestamp;P1;durP1;ratioP1;P2;durP2;ratioP2
75930;SDS011;64609;47.052;15.462;2023-10-31T00:00:43;8.05;;;2.90;;
75930;SDS011;64609;47.052;15.462;2023-10-31T00:03:09;5.25;;;3.05;;
75930;SDS011;64609;47.052;15.462;2023-10-31T00:05:35;7.38;;;2.25;;
75930;SDS011;64609;47.052;15.462;2023-10-31T00:08:02;7.07;;;2.65;;
75930;SDS011;64609;47.052;15.462;2023-10-31T00:10:28;7.55;;;2.70;;
75930;SDS011;64609;47.052;15.462;2023-10-31T00:12:54;5.55;;;2.50;;
75930;SDS011;64609;47.052;15.462;2023-10-31T00:15:20;7.40;;;2.42;;
75930;SDS011;64609;47.052;15.462;2023-10-31T00:17:45;7.97;;;2.55;;
75930;SDS011;64609;47.052;15.462;2023-10-31T00:20:11;5.63;;;3.00;;
75930;SDS011;64609;47.052;15.462;2023-10-31T00:22:37;7.75;;;2.30;;
75930;SDS011;64609;47.052;15.462;2023-10-31T00:25:02;6.80;;;2.58;;
75930;SDS011;64609;47.052;15.462;2023-10-31T00:27:28;5.65;;;2.47;;
75930;SDS011;64609;47.052;15.462;2023-10-31T00:29:54;7.80;;;2.47;;
75930;SDS011;64609;47.052;15.462;2023-10-31T00:32:19;10.35;;;2.53;;
75930;SDS011;64609;47.052;15.462;2023-10-31T00:34:45;9.73;;;2.60;;
75930;SDS011;64609;47.052;15.462;2023-10-31T00:37:11;7.38;;;2.97;;
75930;SDS011;64609;47.052;15.462;2023-10-31T00:39:36;8.95;;;3.10;;
75930;SDS011;64609;47.052;15.462;2023-10-31T00:42:02;8.98;;;2.80;;
75930;SDS011;64609;47.052;15.462;2023-10-31T00:44:27;7.68;;;2.85;;
75930;SDS011;64609;47.052;15.462;2023-10-31T00:46:53;8.15;;;2.90;;
75930;SDS011;64609;47.052;15.462;2023-10-31T00:49:19;7.93;;;2.65;;
75930;SDS011;64609;47.052;15.462;2023-10-31T00:51:44;6.05;;;2.40;;
75930;SDS011;64609;47.052;15.462;2023-10-31T00:54:10;5.13;;;2.67;;
75930;SDS011;64609;47.052;15.462;2023-10-31T00:56:36;9.38;;;2.90;;
75930;SDS011;64609;47.052;15.462;2023-10-31T00:59:01;8.52;;;3.17;;
75930;SDS011;64609;47.052;15.462;2023-10-31T01:01:27;8.93;;;2.58;;
75930;SDS011;64609;47.052;15.462;2023-10-31T01:03:52;7.25;;;2.50;;
75930;SDS011;64609;47.052;15.462;2023-10-31T01:06:18;6.93;;;2.75;;
75930;SDS011;64609;47.052;15.462;2023-10-31T01:08:43;12.80;;;2.90;;
75930;SDS011;64609;47.052;15.462;2023-10-31T01:11:09;7.28;;;2.55;;
75930;SDS011;64609;47.052;15.462;2023-10-31T01:13:35;7.82;;;2.78;;
75930;SDS011;64609;47.052;15.462;2023-10-31T01:16:00;6.20;;;2.30;;
75930;SDS011;64609;47.052;15.462;2023-10-31T01:18:26;9.55;;;2.60;;
75930;SDS011;64609;47.052;15.462;2023-10-31T01:20:51;7.38;;;2.60;;
75930;SDS011;64609;47.052;15.462;2023-10-31T01:23:17;7.80;;;2.30;;
75930;SDS011;64609;47.052;15.462;2023-10-31T01:25:43;11.63;;;2.60;;
75930;SDS011;64609;47.052;15.462;2023-10-31T01:28:09;8.32;;;2.40;;
75930;SDS011;64609;47.052;15.462;2023-10-31T01:30:34;7.72;;;2.67;;
75930;SDS011;64609;47.052;15.462;2023-10-31T01:33:00;10.15;;;3.13;;
75930;SDS011;64609;47.052;15.462;2023-10-31T01:35:26;6.65;;;2.60;;
75930;SDS011;64609;47.052;15.462;2023-10-31T01:37:52;6.13;;;2.50;;
75930;SDS011;64609;47.052;15.462;2023-10-31T01:40:17;9.05;;;2.80;;
75930;SDS011;64609;47.052;15.462;2023-10-31T01:42:43;11.45;;;2.78;;
75930;SDS011;64609;47.052;15.462;2023-10-31T01:45:09;8.18;;;2.60;;
75930;SDS011;64609;47.052;15.462;2023-10-31T01:47:34;8.93;;;2.67;;
75930;SDS011;64609;47.052;15.462;2023-10-31T01:50:00;6.28;;;2.45;;
75930;SDS011;64609;47.052;15.462;2023-10-31T01:52:26;11.38;;;3.03;;
75930;SDS011;64609;47.052;15.462;2023-10-31T01:54:52;9.80;;;2.90;;
75930;SDS011;64609;47.052;15.462;2023-10-31T01:57:18;8.27;;;2.67;;
75930;SDS011;64609;47.052;15.462;2023-10-31T01:59:44;10.95;;;2.63;;
75930;SDS011;64609;47.052;15.462;2023-10-31T02:02:10;10.52;;;2.85;;
75930;SDS011;64609;47.052;15.462;2023-10-31T02:04:36;8.30;;;2.92;;
75930;SDS011;64609;47.052;15.462;2023-10-31T02:07:01;10.93;;;2.97;;
75930;SDS011;64609;47.052;15.462;2023-10-31T02:09:27;7.57;;;2.38;;
75930;SDS011;64609;47.052;15.462;2023-10-31T02:11:54;12.85;;;2.70;;
75930;SDS011;64609;47.052;15.462;2023-10-31T02:14:22;7.97;;;2.83;;
75930;SDS011;64609;47.052;15.462;2023-10-31T02:16:48;12.82;;;3.45;;
75930;SDS011;64609;47.052;15.462;2023-10-31T02:19:14;8.85;;;3.20;;
75930;SDS011;64609;47.052;15.462;2023-10-31T02:21:44;9.57;;;3.13;;
75930;SDS011;64609;47.052;15.462;2023-10-31T02:24:09;10.35;;;3.00;;
75930;SDS011;64609;47.052;15.462;2023-10-31T02:26:35;15.25;;;3.05;;
75930;SDS011;64609;47.052;15.462;2023-10-31T02:29:01;9.90;;;3.10;;
75930;SDS011;64609;47.052;15.462;2023-10-31T02:31:27;13.27;;;2.90;;
75930;SDS011;64609;47.052;15.462;2023-10-31T02:33:53;11.77;;;3.05;;
75930;SDS011;64609;47.052;15.462;2023-10-31T02:36:19;10.50;;;3.15;;
75930;SDS011;64609;47.052;15.462;2023-10-31T02:38:45;9.23;;;2.90;;
75930;SDS011;64609;47.052;15.462;2023-10-31T02:41:11;9.48;;;3.10;;
75930;SDS011;64609;47.052;15.462;2023-10-31T02:43:38;11.23;;;2.90;;
75930;SDS011;64609;47.052;15.462;2023-10-31T02:46:04;8.38;;;2.80;;
75930;SDS011;64609;47.052;15.462;2023-10-31T02:48:29;10.32;;;2.85;;
75930;SDS011;64609;47.052;15.462;2023-10-31T02:51:03;11.68;;;3.33;;
75930;SDS011;64609;47.052;15.462;2023-10-31T02:53:34;8.40;;;2.65;;
75930;SDS011;64609;47.052;15.462;2023-10-31T02:56:01;8.45;;;2.58;;
75930;SDS011;64609;47.052;15.462;2023-10-31T02:58:27;10.30;;;2.70;;
75930;SDS011;64609;47.052;15.462;2023-10-31T03:00:53;10.57;;;2.90;;
75930;SDS011;64609;47.052;15.462;2023-10-31T03:03:18;7.25;;;2.25;;
75930;SDS011;64609;47.052;15.462;2023-10-31T03:05:44;6.82;;;2.60;;
75930;SDS011;64609;47.052;15.462;2023-10-31T03:08:10;7.25;;;2.28;;
75930;SDS011;64609;47.052;15.462;2023-10-31T03:10:38;3.72;;;1.95;;
75930;SDS011;64609;47.052;15.462;2023-10-31T03:13:04;5.90;;;2.30;;
75930;SDS011;64609;47.052;15.462;2023-10-31T03:15:29;4.68;;;2.30;;
75930;SDS011;64609;47.052;15.462;2023-10-31T03:17:55;4.68;;;2.08;;
75930;SDS011;64609;47.052;15.462;2023-10-31T03:20:21;5.10;;;1.90;;
75930;SDS011;64609;47.052;15.462;2023-10-31T03:22:46;6.90;;;2.20;;
75930;SDS011;64609;47.052;15.462;2023-10-31T03:25:12;5.97;;;2.22;;
75930;SDS011;64609;47.052;15.462;2023-10-31T03:27:37;6.75;;;2.30;;
75930;SDS011;64609;47.052;15.462;2023-10-31T03:30:03;5.28;;;2.08;;
75930;SDS011;64609;47.052;15.462;2023-10-31T03:32:29;6.15;;;2.10;;
75930;SDS011;64609;47.052;15.462;2023-10-31T03:34:55;4.57;;;2.10;;
75930;SDS011;64609;47.052;15.462;2023-10-31T03:37:21;8.63;;;2.25;;
75930;SDS011;64609;47.052;15.462;2023-10-31T03:39:46;7.50;;;2.20;;
75930;SDS011;64609;47.052;15.462;2023-10-31T03:42:12;5.57;;;2.35;;
75930;SDS011;64609;47.052;15.462;2023-10-31T03:44:38;8.88;;;2.55;;
75930;SDS011;64609;47.052;15.462;2023-10-31T03:47:03;7.22;;;2.50;;
75930;SDS011;64609;47.052;15.462;2023-10-31T03:49:29;9.25;;;2.25;;
75930;SDS011;64609;47.052;15.462;2023-10-31T03:51:55;4.78;;;2.10;;
75930;SDS011;64609;47.052;15.462;2023-10-31T03:54:20;7.50;;;2.30;;
75930;SDS011;64609;47.052;15.462;2023-10-31T03:56:46;6.18;;;2.20;;
75930;SDS011;64609;47.052;15.462;2023-10-31T03:59:13;4.97;;;2.08;;
75930;SDS011;64609;47.052;15.462;2023-10-31T04:01:39;8.55;;;2.10;;
75930;SDS011;64609;47.052;15.462;2023-10-31T04:04:05;5.30;;;2.25;;
75930;SDS011;64609;47.052;15.462;2023-10-31T04:06:31;7.13;;;2.17;;
75930;SDS011;64609;47.052;15.462;2023-10-31T04:08:57;4.38;;;2.10;;
75930;SDS011;64609;47.052;15.462;2023-10-31T04:11:22;7.50;;;2.28;;
75930;SDS011;64609;47.052;15.462;2023-10-31T04:13:49;9.68;;;2.45;;
75930;SDS011;64609;47.052;15.462;2023-10-31T04:16:14;6.07;;;2.33;;
75930;SDS011;64609;47.052;15.462;2023-10-31T04:18:40;6.90;;;2.25;;
75930;SDS011;64609;47.052;15.462;2023-10-31T04:21:06;5.47;;;2.20;;
75930;SDS011;64609;47.052;15.462;2023-10-31T04:23:31;6.05;;;2.38;;
75930;SDS011;64609;47.052;15.462;2023-10-31T04:25:57;6.45;;;2.15;;
75930;SDS011;64609;47.052;15.462;2023-10-31T04:28:23;6.88;;;2.47;;
75930;SDS011;64609;47.052;15.462;2023-10-31T04:30:48;12.10;;;2.70;;
75930;SDS011;64609;47.052;15.462;2023-10-31T04:33:14;7.93;;;2.60;;
75930;SDS011;64609;47.052;15.462;2023-10-31T04:35:39;4.82;;;2.03;;
75930;SDS011;64609;47.052;15.462;2023-10-31T04:38:05;8.90;;;2.88;;
75930;SDS011;64609;47.052;15.462;2023-10-31T04:40:30;5.57;;;2.47;;
75930;SDS011;64609;47.052;15.462;2023-10-31T04:42:56;8.38;;;2.50;;
75930;SDS011;64609;47.052;15.462;2023-10-31T04:45:22;6.10;;;2.33;;
75930;SDS011;64609;47.052;15.462;2023-10-31T04:47:47;4.03;;;2.20;;
75930;SDS011;64609;47.052;15.462;2023-10-31T04:50:13;7.80;;;2.53;;
75930;SDS011;64609;47.052;15.462;2023-10-31T04:52:38;6.75;;;2.50;;
75930;SDS011;64609;47.052;15.462;2023-10-31T04:55:04;4.70;;;2.38;;
75930;SDS011;64609;47.052;15.462;2023-10-31T04:57:30;6.28;;;2.60;;
75930;SDS011;64609;47.052;15.462;2023-10-31T04:59:56;4.30;;;2.17;;
75930;SDS011;64609;47.052;15.462;2023-10-31T05:02:23;4.07;;;2.22;;
75930;SDS011;64609;47.052;15.462;2023-10-31T05:04:49;8.63;;;2.33;;
75930;SDS011;64609;47.052;15.462;2023-10-31T05:07:16;5.40;;;2.35;;
75930;SDS011;64609;47.052;15.462;2023-10-31T05:09:42;5.80;;;2.45;;
75930;SDS011;64609;47.052;15.462;2023-10-31T05:12:08;7.40;;;2.60;;
75930;SDS011;64609;47.052;15.462;2023-10-31T05:14:34;7.72;;;2.60;;
75930;SDS011;64609;47.052;15.462;2023-10-31T05:17:00;6.32;;;2.70;;
75930;SDS011;64609;47.052;15.462;2023-10-31T05:19:25;7.13;;;2.50;;
75930;SDS011;64609;47.052;15.462;2023-10-31T05:21:51;9.65;;;2.72;;
75930;SDS011;64609;47.052;15.462;2023-10-31T05:24:17;6.63;;;2.80;;
75930;SDS011;64609;47.052;15.462;2023-10-31T05:26:43;5.63;;;2.60;;
75930;SDS011;64609;47.052;15.462;2023-10-31T05:29:09;7.15;;;2.50;;
75930;SDS011;64609;47.052;15.462;2023-10-31T05:31:35;10.90;;;2.63;;
75930;SDS011;64609;47.052;15.462;2023-10-31T05:34:01;6.80;;;2.70;;
75930;SDS011;64609;47.052;15.462;2023-10-31T05:36:28;7.53;;;2.63;;
75930;SDS011;64609;47.052;15.462;2023-10-31T05:38:54;6.03;;;2.78;;
75930;SDS011;64609;47.052;15.462;2023-10-31T05:41:20;8.45;;;3.00;;
75930;SDS011;64609;47.052;15.462;2023-10-31T05:43:45;7.03;;;2.80;;
75930;SDS011;64609;47.052;15.462;2023-10-31T05:46:11;8.75;;;3.75;;
75930;SDS011;64609;47.052;15.462;2023-10-31T05:48:43;9.60;;;3.53;;
75930;SDS011;64609;47.052;15.462;2023-10-31T05:51:11;6.95;;;3.40;;
75930;SDS011;64609;47.052;15.462;2023-10-31T05:53:39;6.80;;;3.75;;
75930;SDS011;64609;47.052;15.462;2023-10-31T05:56:05;11.63;;;3.05;;
75930;SDS011;64609;47.052;15.462;2023-10-31T05:58:34;8.38;;;3.05;;
75930;SDS011;64609;47.052;15.462;2023-10-31T06:01:00;6.93;;;3.20;;
75930;SDS011;64609;47.052;15.462;2023-10-31T06:03:26;7.93;;;2.90;;
75930;SDS011;64609;47.052;15.462;2023-10-31T06:05:51;8.85;;;3.35;;
75930;SDS011;64609;47.052;15.462;2023-10-31T06:08:17;8.80;;;3.28;;
75930;SDS011;64609;47.052;15.462;2023-10-31T06:10:43;7.18;;;2.90;;
75930;SDS011;64609;47.052;15.462;2023-10-31T06:13:08;7.53;;;2.95;;
75930;SDS011;64609;47.052;15.462;2023-10-31T06:15:34;7.05;;;3.00;;
75930;SDS011;64609;47.052;15.462;2023-10-31T06:18:00;9.40;;;3.08;;
75930;SDS011;64609;47.052;15.462;2023-10-31T06:20:26;7.75;;;3.13;;
75930;SDS011;64609;47.052;15.462;2023-10-31T06:22:51;7.95;;;3.10;;
75930;SDS011;64609;47.052;15.462;2023-10-31T06:25:17;6.25;;;3.00;;
75930;SDS011;64609;47.052;15.462;2023-10-31T06:27:42;12.35;;;3.58;;
75930;SDS011;64609;47.052;15.462;2023-10-31T06:30:08;7.40;;;3.47;;
75930;SDS011;64609;47.052;15.462;2023-10-31T06:32:34;10.35;;;3.28;;
75930;SDS011;64609;47.052;15.462;2023-10-31T06:35:01;7.15;;;3.47;;
75930;SDS011;64609;47.052;15.462;2023-10-31T06:37:27;13.48;;;3.42;;
75930;SDS011;64609;47.052;15.462;2023-10-31T06:39:53;7.28;;;3.08;;
75930;SDS011;64609;47.052;15.462;2023-10-31T06:42:18;7.93;;;3.10;;
75930;SDS011;64609;47.052;15.462;2023-10-31T06:44:44;8.13;;;3.00;;
75930;SDS011;64609;47.052;15.462;2023-10-31T06:47:09;6.50;;;3.28;;
75930;SDS011;64609;47.052;15.462;2023-10-31T06:49:35;7.60;;;3.10;;
75930;SDS011;64609;47.052;15.462;2023-10-31T06:52:01;7.15;;;2.70;;
75930;SDS011;64609;47.052;15.462;2023-10-31T06:54:28;10.63;;;2.88;;
75930;SDS011;64609;47.052;15.462;2023-10-31T06:56:53;8.85;;;3.00;;
75930;SDS011;64609;47.052;15.462;2023-10-31T06:59:19;7.00;;;3.20;;
75930;SDS011;64609;47.052;15.462;2023-10-31T07:01:44;7.13;;;3.63;;
75930;SDS011;64609;47.052;15.462;2023-10-31T07:04:11;7.22;;;3.85;;
75930;SDS011;64609;47.052;15.462;2023-10-31T07:06:37;7.05;;;3.15;;
75930;SDS011;64609;47.052;15.462;2023-10-31T07:09:02;10.93;;;4.20;;
75930;SDS011;64609;47.052;15.462;2023-10-31T07:11:30;9.88;;;3.72;;
75930;SDS011;64609;47.052;15.462;2023-10-31T07:13:59;8.40;;;3.75;;
75930;SDS011;64609;47.052;15.462;2023-10-31T07:16:28;8.52;;;3.30;;
75930;SDS011;64609;47.052;15.462;2023-10-31T07:18:55;8.55;;;3.47;;
75930;SDS011;64609;47.052;15.462;2023-10-31T07:21:21;9.02;;;5.18;;
75930;SDS011;64609;47.052;15.462;2023-10-31T07:23:46;9.77;;;5.60;;
75930;SDS011;64609;47.052;15.462;2023-10-31T07:26:12;12.07;;;4.80;;
75930;SDS011;64609;47.052;15.462;2023-10-31T07:28:39;9.80;;;4.38;;
75930;SDS011;64609;47.052;15.462;2023-10-31T07:31:05;7.38;;;4.15;;
75930;SDS011;64609;47.052;15.462;2023-10-31T07:33:30;7.63;;;4.20;;
75930;SDS011;64609;47.052;15.462;2023-10-31T07:35:56;7.13;;;3.70;;
75930;SDS011;64609;47.052;15.462;2023-10-31T07:38:21;10.30;;;3.80;;
75930;SDS011;64609;47.052;15.462;2023-10-31T07:40:47;7.97;;;3.35;;
75930;SDS011;64609;47.052;15.462;2023-10-31T07:43:13;9.50;;;3.63;;
75930;SDS011;64609;47.052;15.462;2023-10-31T07:45:40;8.55;;;3.53;;
75930;SDS011;64609;47.052;15.462;2023-10-31T07:48:05;7.70;;;3.55;;
75930;SDS011;64609;47.052;15.462;2023-10-31T07:50:32;7.95;;;3.50;;
75930;SDS011;64609;47.052;15.462;2023-10-31T07:52:58;8.52;;;3.30;;
75930;SDS011;64609;47.052;15.462;2023-10-31T07:55:24;6.40;;;3.10;;
75930;SDS011;64609;47.052;15.462;2023-10-31T07:57:50;8.50;;;3.20;;
75930;SDS011;64609;47.052;15.462;2023-10-31T08:00:15;7.90;;;3.25;;
75930;SDS011;64609;47.052;15.462;2023-10-31T08:02:41;6.70;;;3.10;;
75930;SDS011;64609;47.052;15.462;2023-10-31T08:05:07;7.47;;;3.47;;
75930;SDS011;64609;47.052;15.462;2023-10-31T08:07:33;8.27;;;3.55;;
75930;SDS011;64609;47.052;15.462;2023-10-31T08:09:58;7.25;;;3.78;;
75930;SDS011;64609;47.052;15.462;2023-10-31T08:12:24;8.98;;;3.63;;
75930;SDS011;64609;47.052;15.462;2023-10-31T08:14:50;7.78;;;4.60;;
75930;SDS011;64609;47.052;15.462;2023-10-31T08:17:15;13.95;;;5.50;;
75930;SDS011;64609;47.052;15.462;2023-10-31T08:19:41;11.65;;;5.95;;
75930;SDS011;64609;47.052;15.462;2023-10-31T08:22:07;10.23;;;4.45;;
75930;SDS011;64609;47.052;15.462;2023-10-31T08:24:33;6.75;;;4.30;;
75930;SDS011;64609;47.052;15.462;2023-10-31T08:27:01;11.98;;;4.13;;
75930;SDS011;64609;47.052;15.462;2023-10-31T08:29:27;8.57;;;4.15;;
75930;SDS011;64609;47.052;15.462;2023-10-31T08:31:53;10.23;;;3.75;;
75930;SDS011;64609;47.052;15.462;2023-10-31T08:34:18;11.25;;;3.75;;
75930;SDS011;64609;47.052;15.462;2023-10-31T08:36:44;8.55;;;3.35;;
75930;SDS011;64609;47.052;15.462;2023-10-31T08:39:09;9.77;;;3.08;;
75930;SDS011;64609;47.052;15.462;2023-10-31T08:41:35;11.32;;;3.35;;
75930;SDS011;64609;47.052;15.462;2023-10-31T08:44:02;12.30;;;3.75;;
75930;SDS011;64609;47.052;15.462;2023-10-31T08:46:28;10.82;;;3.50;;
75930;SDS011;64609;47.052;15.462;2023-10-31T08:48:54;10.85;;;3.83;;
75930;SDS011;64609;47.052;15.462;2023-10-31T08:51:19;7.82;;;3.55;;
75930;SDS011;64609;47.052;15.462;2023-10-31T08:53:45;8.85;;;3.17;;
75930;SDS011;64609;47.052;15.462;2023-10-31T08:56:11;10.93;;;3.58;;
75930;SDS011;64609;47.052;15.462;2023-10-31T08:58:36;8.85;;;4.03;;
75930;SDS011;64609;47.052;15.462;2023-10-31T09:01:02;11.70;;;3.45;;
75930;SDS011;64609;47.052;15.462;2023-10-31T09:03:28;12.60;;;3.92;;
75930;SDS011;64609;47.052;15.462;2023-10-31T09:05:53;9.15;;;3.42;;
75930;SDS011;64609;47.052;15.462;2023-10-31T09:08:19;10.25;;;4.05;;
75930;SDS011;64609;47.052;15.462;2023-10-31T09:10:45;14.50;;;3.97;;
75930;SDS011;64609;47.052;15.462;2023-10-31T09:13:11;12.18;;;3.95;;
75930;SDS011;64609;47.052;15.462;2023-10-31T09:15:37;8.90;;;3.60;;
75930;SDS011;64609;47.052;15.462;2023-10-31T09:18:03;12.73;;;4.00;;
75930;SDS011;64609;47.052;15.462;2023-10-31T09:20:29;11.13;;;4.30;;
75930;SDS011;64609;47.052;15.462;2023-10-31T09:22:55;11.13;;;3.95;;
75930;SDS011;64609;47.052;15.462;2023-10-31T09:25:21;12.45;;;4.38;;
75930;SDS011;64609;47.052;15.462;2023-10-31T09:27:46;15.30;;;5.10;;
75930;SDS011;64609;47.052;15.462;2023-10-31T09:30:12;9.75;;;4.45;;
75930;SDS011;64609;47.052;15.462;2023-10-31T09:32:38;13.55;;;5.30;;
75930;SDS011;64609;47.052;15.462;2023-10-31T09:35:04;12.05;;;4.95;;
75930;SDS011;64609;47.052;15.462;2023-10-31T09:37:30;9.73;;;4.13;;
75930;SDS011;64609;47.052;15.462;2023-10-31T09:39:56;7.13;;;2.70;;
75930;SDS011;64609;47.052;15.462;2023-10-31T09:42:22;3.28;;;1.50;;
75930;SDS011;64609;47.052;15.462;2023-10-31T09:44:47;3.97;;;1.40;;
75930;SDS011;64609;47.052;15.462;2023-10-31T09:47:13;3.28;;;1.15;;
75930;SDS011;64609;47.052;15.462;2023-10-31T09:49:40;2.70;;;1.20;;
75930;SDS011;64609;47.052;15.462;2023-10-31T09:52:06;4.57;;;1.15;;
75930;SDS011;64609;47.052;15.462;2023-10-31T09:54:33;3.95;;;1.25;;
75930;SDS011;64609;47.052;15.462;2023-10-31T09:56:59;5.82;;;1.60;;
75930;SDS011;64609;47.052;15.462;2023-10-31T09:59:25;5.25;;;1.40;;
75930;SDS011;64609;47.052;15.462;2023-10-31T10:01:51;4.70;;;1.20;;
75930;SDS011;64609;47.052;15.462;2023-10-31T10:04:17;2.33;;;1.25;;
75930;SDS011;64609;47.052;15.462;2023-10-31T10:07:43;2.28;;;1.10;;
75930;SDS011;64609;47.052;15.462;2023-10-31T10:09:42;3.92;;;1.10;;
75930;SDS011;64609;47.052;15.462;2023-10-31T10:12:08;3.97;;;1.45;;
75930;SDS011;64609;47.052;15.462;2023-10-31T10:14:37;5.88;;;1.45;;
75930;SDS011;64609;47.052;15.462;2023-10-31T10:17:14;6.18;;;1.90;;
75930;SDS011;64609;47.052;15.462;2023-10-31T10:19:41;6.45;;;2.00;;
75930;SDS011;64609;47.052;15.462;2023-10-31T10:22:07;5.53;;;2.35;;
75930;SDS011;64609;47.052;15.462;2023-10-31T10:24:32;4.85;;;2.75;;
75930;SDS011;64609;47.052;15.462;2023-10-31T10:26:58;7.70;;;3.83;;
75930;SDS011;64609;47.052;15.462;2023-10-31T10:29:24;7.97;;;2.88;;
75930;SDS011;64609;47.052;15.462;2023-10-31T10:31:51;3.13;;;1.88;;
75930;SDS011;64609;47.052;15.462;2023-10-31T10:34:17;3.30;;;2.17;;
75930;SDS011;64609;47.052;15.462;2023-10-31T10:36:46;3.42;;;1.50;;
75930;SDS011;64609;47.052;15.462;2023-10-31T10:39:21;3.05;;;1.50;;
75930;SDS011;64609;47.052;15.462;2023-10-31T10:41:56;5.68;;;1.20;;
75930;SDS011;64609;47.052;15.462;2023-10-31T10:44:32;1.48;;;1.02;;
75930;SDS011;64609;47.052;15.462;2023-10-31T10:47:01;3.72;;;2.13;;
75930;SDS011;64609;47.052;15.462;2023-10-31T10:49:29;6.97;;;3.60;;
75930;SDS011;64609;47.052;15.462;2023-10-31T10:52:06;3.35;;;2.53;;
75930;SDS011;64609;47.052;15.462;2023-10-31T10:54:52;2.17;;;1.02;;
75930;SDS011;64609;47.052;15.462;2023-10-31T10:57:28;1.00;;;0.90;;
75930;SDS011;64609;47.052;15.462;2023-10-31T10:59:55;3.92;;;0.90;;
75930;SDS011;64609;47.052;15.462;2023-10-31T11:02:26;1.58;;;1.25;;
75930;SDS011;64609;47.052;15.462;2023-10-31T11:04:54;0.80;;;0.80;;
75930;SDS011;64609;47.052;15.462;2023-10-31T11:07:20;1.30;;;0.90;;
75930;SDS011;64609;47.052;15.462;2023-10-31T11:09:48;1.33;;;0.65;;
75930;SDS011;64609;47.052;15.462;2023-10-31T11:12:14;1.70;;;0.80;;
75930;SDS011;64609;47.052;15.462;2023-10-31T11:14:41;2.97;;;0.90;;
75930;SDS011;64609;47.052;15.462;2023-10-31T11:17:21;2.15;;;1.00;;
75930;SDS011;64609;47.052;15.462;2023-10-31T11:19:51;3.97;;;1.10;;
75930;SDS011;64609;47.052;15.462;2023-10-31T11:22:19;4.03;;;0.98;;
75930;SDS011;64609;47.052;15.462;2023-10-31T11:24:44;1.00;;;0.90;;
75930;SDS011;64609;47.052;15.462;2023-10-31T11:27:10;2.25;;;1.17;;
75930;SDS011;64609;47.052;15.462;2023-10-31T11:29:36;1.55;;;1.00;;
75930;SDS011;64609;47.052;15.462;2023-10-31T11:32:02;1.23;;;1.05;;
75930;SDS011;64609;47.052;15.462;2023-10-31T11:34:28;2.03;;;1.00;;
75930;SDS011;64609;47.052;15.462;2023-10-31T11:37:40;1.05;;;0.95;;
75930;SDS011;64609;47.052;15.462;2023-10-31T11:40:38;1.25;;;0.90;;
75930;SDS011;64609;47.052;15.462;2023-10-31T11:42:42;1.17;;;0.70;;
75930;SDS011;64609;47.052;15.462;2023-10-31T11:45:08;1.08;;;0.52;;
75930;SDS011;64609;47.052;15.462;2023-10-31T11:47:47;1.17;;;0.60;;
75930;SDS011;64609;47.052;15.462;2023-10-31T11:50:16;1.40;;;0.80;;
75930;SDS011;64609;47.052;15.462;2023-10-31T11:52:42;2.08;;;1.08;;
75930;SDS011;64609;47.052;15.462;2023-10-31T11:55:11;3.40;;;1.60;;
75930;SDS011;64609;47.052;15.462;2023-10-31T11:57:40;4.40;;;1.27;;
75930;SDS011;64609;47.052;15.462;2023-10-31T12:00:06;5.40;;;1.42;;
75930;SDS011;64609;47.052;15.462;2023-10-31T12:02:56;2.55;;;1.20;;
75930;SDS011;64609;47.052;15.462;2023-10-31T12:05:23;4.07;;;1.58;;
75930;SDS011;64609;47.052;15.462;2023-10-31T12:07:48;1.58;;;1.10;;
75930;SDS011;64609;47.052;15.462;2023-10-31T12:10:20;3.58;;;1.00;;
75930;SDS011;64609;47.052;15.462;2023-10-31T12:12:49;1.80;;;1.00;;
75930;SDS011;64609;47.052;15.462;2023-10-31T12:15:15;1.98;;;1.00;;
75930;SDS011;64609;47.052;15.462;2023-10-31T12:17:40;1.70;;;0.80;;
75930;SDS011;64609;47.052;15.462;2023-10-31T12:20:06;2.13;;;0.70;;
75930;SDS011;64609;47.052;15.462;2023-10-31T12:22:34;1.08;;;0.60;;
75930;SDS011;64609;47.052;15.462;2023-10-31T12:25:03;0.70;;;0.70;;
75930;SDS011;64609;47.052;15.462;2023-10-31T12:27:46;1.88;;;0.80;;
75930;SDS011;64609;47.052;15.462;2023-10-31T12:30:17;0.85;;;0.60;;
75930;SDS011;64609;47.052;15.462;2023-10-31T12:32:45;1.75;;;0.70;;
75930;SDS011;64609;47.052;15.462;2023-10-31T12:35:19;1.00;;;0.90;;
75930;SDS011;64609;47.052;15.462;2023-10-31T12:37:47;2.47;;;0.50;;
75930;SDS011;64609;47.052;15.462;2023-10-31T12:40:15;0.85;;;0.75;;
75930;SDS011;64609;47.052;15.462;2023-10-31T12:42:46;1.23;;;0.80;;
75930;SDS011;64609;47.052;15.462;2023-10-31T12:45:12;0.77;;;0.75;;
75930;SDS011;64609;47.052;15.462;2023-10-31T12:47:39;1.75;;;0.70;;
75930;SDS011;64609;47.052;15.462;2023-10-31T12:50:09;1.67;;;0.80;;
75930;SDS011;64609;47.052;15.462;2023-10-31T12:57:45;1.10;;;1.00;;
75930;SDS011;64609;47.052;15.462;2023-10-31T13:00:12;1.60;;;1.10;;
75930;SDS011;64609;47.052;15.462;2023-10-31T13:02:39;1.10;;;1.00;;
75930;SDS011;64609;47.052;15.462;2023-10-31T13:05:12;1.92;;;1.20;;
75930;SDS011;64609;47.052;15.462;2023-10-31T13:07:48;3.03;;;1.63;;
75930;SDS011;64609;47.052;15.462;2023-10-31T13:10:15;1.45;;;1.23;;
75930;SDS011;64609;47.052;15.462;2023-10-31T13:12:43;1.40;;;1.10;;
75930;SDS011;64609;47.052;15.462;2023-10-31T13:15:10;2.28;;;0.93;;
75930;SDS011;64609;47.052;15.462;2023-10-31T13:17:36;3.13;;;0.95;;
75930;SDS011;64609;47.052;15.462;2023-10-31T13:20:03;3.78;;;0.90;;
75930;SDS011;64609;47.052;15.462;2023-10-31T13:22:34;1.45;;;0.90;;
75930;SDS011;64609;47.052;15.462;2023-10-31T13:25:01;2.15;;;1.13;;
75930;SDS011;64609;47.052;15.462;2023-10-31T13:27:30;1.70;;;0.70;;
75930;SDS011;64609;47.052;15.462;2023-10-31T13:29:56;1.95;;;0.90;;
75930;SDS011;64609;47.052;15.462;2023-10-31T13:32:22;1.65;;;1.00;;
75930;SDS011;64609;47.052;15.462;2023-10-31T13:34:48;2.92;;;1.10;;
75930;SDS011;64609;47.052;15.462;2023-10-31T13:37:13;1.45;;;1.02;;
75930;SDS011;64609;47.052;15.462;2023-10-31T13:39:39;2.70;;;1.88;;
75930;SDS011;64609;47.052;15.462;2023-10-31T13:42:05;1.40;;;1.20;;
75930;SDS011;64609;47.052;15.462;2023-10-31T13:44:30;3.35;;;1.10;;
75930;SDS011;64609;47.052;15.462;2023-10-31T13:46:56;2.05;;;1.23;;
75930;SDS011;64609;47.052;15.462;2023-10-31T13:49:22;3.05;;;1.10;;
75930;SDS011;64609;47.052;15.462;2023-10-31T13:51:47;2.53;;;1.20;;
75930;SDS011;64609;47.052;15.462;2023-10-31T13:54:14;1.88;;;1.38;;
75930;SDS011;64609;47.052;15.462;2023-10-31T13:56:39;2.25;;;1.38;;
75930;SDS011;64609;47.052;15.462;2023-10-31T13:59:05;3.35;;;1.33;;
75930;SDS011;64609;47.052;15.462;2023-10-31T14:01:31;2.20;;;1.20;;
75930;SDS011;64609;47.052;15.462;2023-10-31T14:03:56;5.22;;;1.50;;
75930;SDS011;64609;47.052;15.462;2023-10-31T14:06:22;5.20;;;1.50;;
75930;SDS011;64609;47.052;15.462;2023-10-31T14:08:50;2.83;;;1.55;;
75930;SDS011;64609;47.052;15.462;2023-10-31T14:11:16;3.63;;;1.60;;
75930;SDS011;64609;47.052;15.462;2023-10-31T14:13:42;3.90;;;1.98;;
75930;SDS011;64609;47.052;15.462;2023-10-31T14:16:09;2.78;;;1.95;;
75930;SDS011;64609;47.052;15.462;2023-10-31T14:18:37;7.15;;;2.45;;
75930;SDS011;64609;47.052;15.462;2023-10-31T14:21:02;6.45;;;3.47;;
75930;SDS011;64609;47.052;15.462;2023-10-31T14:23:28;7.35;;;3.72;;
75930;SDS011;64609;47.052;15.462;2023-10-31T14:25:54;8.10;;;3.50;;
75930;SDS011;64609;47.052;15.462;2023-10-31T14:28:19;7.78;;;3.85;;
75930;SDS011;64609;47.052;15.462;2023-10-31T14:30:45;8.57;;;4.18;;
75930;SDS011;64609;47.052;15.462;2023-10-31T14:33:11;5.40;;;3.55;;
75930;SDS011;64609;47.052;15.462;2023-10-31T14:35:36;6.72;;;3.75;;